sensor_id;sensor_type;location;lat;lon;timestamp;P1;durP1;ratioP1;P2;durP2;ratioP2
25946;SDS011;13745;51.470;9.894;2023-07-13T00:00:07;5.13;;;1.17;;
25946;SDS011;13745;51.470;9.894;2023-07-13T00:02:58;4.63;;;1.00;;
25946;SDS011;13745;51.470;9.894;2023-07-13T00:05:44;6.22;;;1.02;;
25946;SDS011;13745;51.470;9.894;2023-07-13T00:08:30;3.83;;;0.98;;
25946;SDS011;13745;51.470;9.894;2023-07-13T00:11:18;2.55;;;0.98;;
25946;SDS011;13745;51.470;9.894;2023-07-13T00:14:04;2.45;;;1.10;;
25946;SDS011;13745;51.470;9.894;2023-07-13T00:16:49;4.38;;;0.95;;
25946;SDS011;13745;51.470;9.894;2023-07-13T00:19:34;5.20;;;1.30;;
25946;SDS011;13745;51.470;9.894;2023-07-13T00:22:19;3.78;;;1.05;;
25946;SDS011;13745;51.470;9.894;2023-07-13T00:25:05;2.33;;;1.08;;
25946;SDS011;13745;51.470;9.894;2023-07-13T00:27:52;5.00;;;1.27;;
25946;SDS011;13745;51.470;9.894;2023-07-13T00:30:37;2.60;;;0.95;;
25946;SDS011;13745;51.470;9.894;2023-07-13T00:33:22;3.33;;;1.15;;
25946;SDS011;13745;51.470;9.894;2023-07-13T00:36:08;1.80;;;1.00;;
25946;SDS011;13745;51.470;9.894;2023-07-13T00:38:54;3.78;;;1.23;;
25946;SDS011;13745;51.470;9.894;2023-07-13T00:41:39;1.58;;;0.75;;
25946;SDS011;13745;51.470;9.894;2023-07-13T00:44:25;7.55;;;1.65;;
25946;SDS011;13745;51.470;9.894;2023-07-13T00:47:11;2.58;;;0.90;;
25946;SDS011;13745;51.470;9.894;2023-07-13T00:49:57;2.95;;;1.20;;
25946;SDS011;13745;51.470;9.894;2023-07-13T00:52:44;5.28;;;1.08;;
25946;SDS011;13745;51.470;9.894;2023-07-13T00:55:31;3.47;;;1.05;;
25946;SDS011;13745;51.470;9.894;2023-07-13T00:58:18;3.17;;;1.33;;
25946;SDS011;13745;51.470;9.894;2023-07-13T01:01:04;4.72;;;1.33;;
25946;SDS011;13745;51.470;9.894;2023-07-13T01:03:50;4.65;;;1.08;;
25946;SDS011;13745;51.470;9.894;2023-07-13T01:06:35;3.72;;;1.17;;
25946;SDS011;13745;51.470;9.894;2023-07-13T01:09:22;4.47;;;1.20;;
25946;SDS011;13745;51.470;9.894;2023-07-13T01:12:08;5.32;;;1.48;;
25946;SDS011;13745;51.470;9.894;2023-07-13T01:14:56;6.90;;;1.33;;
25946;SDS011;13745;51.470;9.894;2023-07-13T01:17:43;5.85;;;1.42;;
25946;SDS011;13745;51.470;9.894;2023-07-13T01:20:29;4.95;;;1.48;;
25946;SDS011;13745;51.470;9.894;2023-07-13T01:23:15;3.70;;;1.13;;
25946;SDS011;13745;51.470;9.894;2023-07-13T01:26:01;2.95;;;1.00;;
25946;SDS011;13745;51.470;9.894;2023-07-13T01:28:47;5.22;;;1.25;;
25946;SDS011;13745;51.470;9.894;2023-07-13T01:31:32;6.38;;;1.08;;
25946;SDS011;13745;51.470;9.894;2023-07-13T01:34:17;5.72;;;1.08;;
25946;SDS011;13745;51.470;9.894;2023-07-13T01:37:02;4.97;;;1.17;;
25946;SDS011;13745;51.470;9.894;2023-07-13T01:39:49;3.55;;;1.33;;
25946;SDS011;13745;51.470;9.894;2023-07-13T01:42:34;4.53;;;1.27;;
25946;SDS011;13745;51.470;9.894;2023-07-13T01:45:19;2.50;;;1.05;;
25946;SDS011;13745;51.470;9.894;2023-07-13T01:48:05;3.10;;;1.05;;
25946;SDS011;13745;51.470;9.894;2023-07-13T01:50:51;3.42;;;1.00;;
25946;SDS011;13745;51.470;9.894;2023-07-13T01:53:36;4.30;;;1.20;;
25946;SDS011;13745;51.470;9.894;2023-07-13T01:56:23;4.28;;;1.65;;
25946;SDS011;13745;51.470;9.894;2023-07-13T01:59:08;5.75;;;1.58;;
25946;SDS011;13745;51.470;9.894;2023-07-13T02:01:53;3.58;;;1.08;;
25946;SDS011;13745;51.470;9.894;2023-07-13T02:04:38;4.55;;;1.10;;
25946;SDS011;13745;51.470;9.894;2023-07-13T02:07:23;2.60;;;1.10;;
25946;SDS011;13745;51.470;9.894;2023-07-13T02:10:09;3.10;;;1.30;;
25946;SDS011;13745;51.470;9.894;2023-07-13T02:12:56;4.15;;;1.20;;
25946;SDS011;13745;51.470;9.894;2023-07-13T02:15:41;4.07;;;1.20;;
25946;SDS011;13745;51.470;9.894;2023-07-13T02:18:27;5.32;;;1.55;;
25946;SDS011;13745;51.470;9.894;2023-07-13T02:21:12;3.22;;;1.10;;
25946;SDS011;13745;51.470;9.894;2023-07-13T02:23:58;3.88;;;1.48;;
25946;SDS011;13745;51.470;9.894;2023-07-13T02:26:43;3.85;;;1.48;;
25946;SDS011;13745;51.470;9.894;2023-07-13T02:29:30;3.60;;;1.70;;
25946;SDS011;13745;51.470;9.894;2023-07-13T02:32:15;2.75;;;1.60;;
25946;SDS011;13745;51.470;9.894;2023-07-13T02:35:02;4.20;;;1.70;;
25946;SDS011;13745;51.470;9.894;2023-07-13T02:37:47;3.80;;;1.58;;
25946;SDS011;13745;51.470;9.894;2023-07-13T02:40:32;3.38;;;1.40;;
25946;SDS011;13745;51.470;9.894;2023-07-13T02:43:19;2.60;;;1.33;;
25946;SDS011;13745;51.470;9.894;2023-07-13T02:46:06;2.47;;;1.05;;
25946;SDS011;13745;51.470;9.894;2023-07-13T02:48:52;3.85;;;1.60;;
25946;SDS011;13745;51.470;9.894;2023-07-13T02:51:38;2.90;;;1.20;;
25946;SDS011;13745;51.470;9.894;2023-07-13T02:54:23;4.57;;;1.23;;
25946;SDS011;13745;51.470;9.894;2023-07-13T02:57:08;3.60;;;1.23;;
25946;SDS011;13745;51.470;9.894;2023-07-13T02:59:53;5.22;;;1.80;;
25946;SDS011;13745;51.470;9.894;2023-07-13T03:02:39;3.20;;;1.50;;
25946;SDS011;13745;51.470;9.894;2023-07-13T03:05:25;3.78;;;1.50;;
25946;SDS011;13745;51.470;9.894;2023-07-13T03:08:10;3.65;;;1.30;;
25946;SDS011;13745;51.470;9.894;2023-07-13T03:10:59;5.32;;;1.40;;
25946;SDS011;13745;51.470;9.894;2023-07-13T03:13:46;2.42;;;1.40;;
25946;SDS011;13745;51.470;9.894;2023-07-13T03:16:32;7.47;;;1.48;;
25946;SDS011;13745;51.470;9.894;2023-07-13T03:19:18;5.97;;;1.50;;
25946;SDS011;13745;51.470;9.894;2023-07-13T03:22:07;8.77;;;1.70;;
25946;SDS011;13745;51.470;9.894;2023-07-13T03:24:54;4.88;;;1.27;;
25946;SDS011;13745;51.470;9.894;2023-07-13T03:27:40;4.40;;;1.63;;
25946;SDS011;13745;51.470;9.894;2023-07-13T03:30:26;2.90;;;1.40;;
25946;SDS011;13745;51.470;9.894;2023-07-13T03:33:12;2.95;;;1.33;;
25946;SDS011;13745;51.470;9.894;2023-07-13T03:35:59;9.70;;;1.80;;
25946;SDS011;13745;51.470;9.894;2023-07-13T03:38:44;5.55;;;1.83;;
25946;SDS011;13745;51.470;9.894;2023-07-13T03:41:33;6.85;;;1.65;;
25946;SDS011;13745;51.470;9.894;2023-07-13T03:44:19;5.32;;;1.42;;
25946;SDS011;13745;51.470;9.894;2023-07-13T03:47:08;6.85;;;1.90;;
25946;SDS011;13745;51.470;9.894;2023-07-13T03:49:53;4.30;;;2.15;;
25946;SDS011;13745;51.470;9.894;2023-07-13T03:52:40;7.47;;;1.58;;
25946;SDS011;13745;51.470;9.894;2023-07-13T03:55:25;3.30;;;1.55;;
25946;SDS011;13745;51.470;9.894;2023-07-13T03:58:24;4.95;;;1.70;;
25946;SDS011;13745;51.470;9.894;2023-07-13T04:01:17;6.72;;;1.60;;
25946;SDS011;13745;51.470;9.894;2023-07-13T04:04:04;3.17;;;1.40;;
25946;SDS011;13745;51.470;9.894;2023-07-13T04:06:49;5.65;;;1.70;;
25946;SDS011;13745;51.470;9.894;2023-07-13T04:09:38;3.33;;;1.23;;
25946;SDS011;13745;51.470;9.894;2023-07-13T04:12:23;5.13;;;1.60;;
25946;SDS011;13745;51.470;9.894;2023-07-13T04:15:08;3.95;;;1.70;;
25946;SDS011;13745;51.470;9.894;2023-07-13T04:17:54;7.68;;;1.65;;
25946;SDS011;13745;51.470;9.894;2023-07-13T04:20:39;5.40;;;1.80;;
25946;SDS011;13745;51.470;9.894;2023-07-13T04:23:24;6.88;;;1.98;;
25946;SDS011;13745;51.470;9.894;2023-07-13T04:26:10;4.13;;;2.03;;
25946;SDS011;13745;51.470;9.894;2023-07-13T04:28:56;6.20;;;1.77;;
25946;SDS011;13745;51.470;9.894;2023-07-13T04:31:41;4.18;;;1.73;;
25946;SDS011;13745;51.470;9.894;2023-07-13T04:34:26;4.30;;;1.75;;
25946;SDS011;13745;51.470;9.894;2023-07-13T04:37:11;4.15;;;1.40;;
25946;SDS011;13745;51.470;9.894;2023-07-13T04:39:56;4.60;;;1.95;;
25946;SDS011;13745;51.470;9.894;2023-07-13T04:42:43;3.63;;;1.70;;
25946;SDS011;13745;51.470;9.894;2023-07-13T04:45:28;5.38;;;1.80;;
25946;SDS011;13745;51.470;9.894;2023-07-13T04:48:14;5.07;;;2.50;;
25946;SDS011;13745;51.470;9.894;2023-07-13T04:51:00;4.38;;;1.95;;
25946;SDS011;13745;51.470;9.894;2023-07-13T04:53:46;4.93;;;1.50;;
25946;SDS011;13745;51.470;9.894;2023-07-13T04:56:31;5.70;;;2.10;;
25946;SDS011;13745;51.470;9.894;2023-07-13T04:59:17;4.80;;;1.58;;
25946;SDS011;13745;51.470;9.894;2023-07-13T05:02:02;3.60;;;1.45;;
25946;SDS011;13745;51.470;9.894;2023-07-13T05:04:48;3.28;;;1.55;;
25946;SDS011;13745;51.470;9.894;2023-07-13T05:07:33;4.28;;;1.60;;
25946;SDS011;13745;51.470;9.894;2023-07-13T05:10:18;4.53;;;1.63;;
25946;SDS011;13745;51.470;9.894;2023-07-13T05:13:04;5.55;;;2.03;;
25946;SDS011;13745;51.470;9.894;2023-07-13T05:15:56;6.53;;;2.25;;
25946;SDS011;13745;51.470;9.894;2023-07-13T05:21:27;9.98;;;1.80;;
25946;SDS011;13745;51.470;9.894;2023-07-13T05:24:12;6.85;;;1.55;;
25946;SDS011;13745;51.470;9.894;2023-07-13T05:26:57;3.80;;;1.65;;
25946;SDS011;13745;51.470;9.894;2023-07-13T05:29:42;3.15;;;1.60;;
25946;SDS011;13745;51.470;9.894;2023-07-13T05:32:29;3.53;;;1.50;;
25946;SDS011;13745;51.470;9.894;2023-07-13T05:35:15;5.93;;;1.50;;
25946;SDS011;13745;51.470;9.894;2023-07-13T05:38:00;6.57;;;2.00;;
25946;SDS011;13745;51.470;9.894;2023-07-13T05:40:45;2.03;;;1.33;;
25946;SDS011;13745;51.470;9.894;2023-07-13T05:43:31;3.58;;;1.40;;
25946;SDS011;13745;51.470;9.894;2023-07-13T05:46:17;2.97;;;1.58;;
25946;SDS011;13745;51.470;9.894;2023-07-13T05:49:03;4.70;;;1.05;;
25946;SDS011;13745;51.470;9.894;2023-07-13T05:51:48;11.65;;;1.88;;
25946;SDS011;13745;51.470;9.894;2023-07-13T05:54:33;7.10;;;1.60;;
25946;SDS011;13745;51.470;9.894;2023-07-13T05:57:18;4.95;;;1.52;;
25946;SDS011;13745;51.470;9.894;2023-07-13T06:00:04;4.95;;;1.52;;
25946;SDS011;13745;51.470;9.894;2023-07-13T06:02:55;5.53;;;1.23;;
25946;SDS011;13745;51.470;9.894;2023-07-13T06:05:43;9.23;;;1.55;;
25946;SDS011;13745;51.470;9.894;2023-07-13T06:08:28;4.35;;;1.52;;
25946;SDS011;13745;51.470;9.894;2023-07-13T06:11:14;4.18;;;1.38;;
25946;SDS011;13745;51.470;9.894;2023-07-13T06:14:01;4.45;;;1.02;;
25946;SDS011;13745;51.470;9.894;2023-07-13T06:16:47;3.53;;;1.13;;
25946;SDS011;13745;51.470;9.894;2023-07-13T06:19:32;2.85;;;1.45;;
25946;SDS011;13745;51.470;9.894;2023-07-13T06:22:19;5.45;;;1.10;;
25946;SDS011;13745;51.470;9.894;2023-07-13T06:25:05;5.47;;;1.10;;
25946;SDS011;13745;51.470;9.894;2023-07-13T06:27:50;4.72;;;1.00;;
25946;SDS011;13745;51.470;9.894;2023-07-13T06:30:37;3.17;;;0.82;;
25946;SDS011;13745;51.470;9.894;2023-07-13T06:33:22;4.80;;;1.10;;
25946;SDS011;13745;51.470;9.894;2023-07-13T06:36:08;7.47;;;0.90;;
25946;SDS011;13745;51.470;9.894;2023-07-13T06:38:55;5.20;;;1.20;;
25946;SDS011;13745;51.470;9.894;2023-07-13T06:41:40;6.72;;;1.25;;
25946;SDS011;13745;51.470;9.894;2023-07-13T06:44:28;2.47;;;1.00;;
25946;SDS011;13745;51.470;9.894;2023-07-13T06:47:13;5.20;;;1.30;;
25946;SDS011;13745;51.470;9.894;2023-07-13T06:49:58;5.90;;;1.55;;
25946;SDS011;13745;51.470;9.894;2023-07-13T06:52:43;2.45;;;0.90;;
25946;SDS011;13745;51.470;9.894;2023-07-13T06:55:30;5.97;;;1.40;;
25946;SDS011;13745;51.470;9.894;2023-07-13T06:58:16;2.75;;;0.80;;
25946;SDS011;13745;51.470;9.894;2023-07-13T07:01:02;5.82;;;1.25;;
25946;SDS011;13745;51.470;9.894;2023-07-13T07:03:47;4.72;;;1.30;;
25946;SDS011;13745;51.470;9.894;2023-07-13T07:06:32;3.03;;;1.50;;
25946;SDS011;13745;51.470;9.894;2023-07-13T07:09:17;6.68;;;1.33;;
25946;SDS011;13745;51.470;9.894;2023-07-13T07:12:04;2.10;;;0.80;;
25946;SDS011;13745;51.470;9.894;2023-07-13T07:14:49;3.85;;;1.00;;
25946;SDS011;13745;51.470;9.894;2023-07-13T07:17:34;2.25;;;0.98;;
25946;SDS011;13745;51.470;9.894;2023-07-13T07:20:20;6.10;;;1.17;;
25946;SDS011;13745;51.470;9.894;2023-07-13T07:23:05;3.75;;;1.13;;
25946;SDS011;13745;51.470;9.894;2023-07-13T07:25:51;6.60;;;1.02;;
25946;SDS011;13745;51.470;9.894;2023-07-13T07:28:37;4.95;;;1.00;;
25946;SDS011;13745;51.470;9.894;2023-07-13T07:31:23;5.03;;;1.45;;
25946;SDS011;13745;51.470;9.894;2023-07-13T07:34:08;3.70;;;1.10;;
25946;SDS011;13745;51.470;9.894;2023-07-13T07:36:53;3.83;;;0.95;;
25946;SDS011;13745;51.470;9.894;2023-07-13T07:39:39;3.13;;;0.90;;
25946;SDS011;13745;51.470;9.894;2023-07-13T07:42:25;4.47;;;1.77;;
25946;SDS011;13745;51.470;9.894;2023-07-13T07:45:11;3.53;;;0.98;;
25946;SDS011;13745;51.470;9.894;2023-07-13T07:47:57;5.68;;;1.00;;
25946;SDS011;13745;51.470;9.894;2023-07-13T07:50:42;4.93;;;0.80;;
25946;SDS011;13745;51.470;9.894;2023-07-13T07:53:28;1.83;;;0.60;;
25946;SDS011;13745;51.470;9.894;2023-07-13T07:56:13;3.53;;;1.30;;
25946;SDS011;13745;51.470;9.894;2023-07-13T07:58:59;3.08;;;0.80;;
25946;SDS011;13745;51.470;9.894;2023-07-13T08:01:46;3.42;;;0.70;;
25946;SDS011;13745;51.470;9.894;2023-07-13T08:04:33;4.05;;;0.70;;
25946;SDS011;13745;51.470;9.894;2023-07-13T08:07:19;1.83;;;0.70;;
25946;SDS011;13745;51.470;9.894;2023-07-13T08:10:04;3.70;;;1.13;;
25946;SDS011;13745;51.470;9.894;2023-07-13T08:12:49;2.92;;;1.10;;
25946;SDS011;13745;51.470;9.894;2023-07-13T08:15:34;2.72;;;0.75;;
25946;SDS011;13745;51.470;9.894;2023-07-13T08:18:22;3.10;;;0.93;;
25946;SDS011;13745;51.470;9.894;2023-07-13T08:21:08;1.23;;;0.70;;
25946;SDS011;13745;51.470;9.894;2023-07-13T08:23:53;5.13;;;1.00;;
25946;SDS011;13745;51.470;9.894;2023-07-13T08:26:38;1.67;;;0.68;;
25946;SDS011;13745;51.470;9.894;2023-07-13T08:29:23;7.63;;;1.05;;
25946;SDS011;13745;51.470;9.894;2023-07-13T08:32:08;5.18;;;1.33;;
25946;SDS011;13745;51.470;9.894;2023-07-13T08:34:56;1.42;;;0.60;;
25946;SDS011;13745;51.470;9.894;2023-07-13T08:37:41;1.40;;;0.60;;
25946;SDS011;13745;51.470;9.894;2023-07-13T08:40:26;2.35;;;0.73;;
25946;SDS011;13745;51.470;9.894;2023-07-13T08:43:12;4.63;;;0.90;;
25946;SDS011;13745;51.470;9.894;2023-07-13T08:46:02;1.42;;;0.60;;
25946;SDS011;13745;51.470;9.894;2023-07-13T08:48:55;2.75;;;1.05;;
25946;SDS011;13745;51.470;9.894;2023-07-13T08:51:44;2.80;;;0.75;;
25946;SDS011;13745;51.470;9.894;2023-07-13T08:54:33;3.08;;;0.80;;
25946;SDS011;13745;51.470;9.894;2023-07-13T08:57:23;3.42;;;0.93;;
25946;SDS011;13745;51.470;9.894;2023-07-13T09:00:15;3.22;;;0.70;;
25946;SDS011;13745;51.470;9.894;2023-07-13T09:03:00;0.98;;;0.60;;
25946;SDS011;13745;51.470;9.894;2023-07-13T09:05:49;3.33;;;1.20;;
25946;SDS011;13745;51.470;9.894;2023-07-13T09:08:41;4.47;;;0.80;;
25946;SDS011;13745;51.470;9.894;2023-07-13T09:11:36;2.47;;;0.60;;
25946;SDS011;13745;51.470;9.894;2023-07-13T09:14:33;3.22;;;0.88;;
25946;SDS011;13745;51.470;9.894;2023-07-13T09:17:25;5.45;;;0.80;;
25946;SDS011;13745;51.470;9.894;2023-07-13T09:20:15;1.50;;;0.68;;
25946;SDS011;13745;51.470;9.894;2023-07-13T09:23:07;1.20;;;0.70;;
25946;SDS011;13745;51.470;9.894;2023-07-13T09:26:04;4.53;;;0.88;;
25946;SDS011;13745;51.470;9.894;2023-07-13T09:28:53;4.25;;;1.10;;
25946;SDS011;13745;51.470;9.894;2023-07-13T09:31:44;2.17;;;0.80;;
25946;SDS011;13745;51.470;9.894;2023-07-13T09:34:34;2.30;;;0.80;;
25946;SDS011;13745;51.470;9.894;2023-07-13T09:37:20;4.90;;;0.63;;
25946;SDS011;13745;51.470;9.894;2023-07-13T09:40:08;3.70;;;0.75;;
25946;SDS011;13745;51.470;9.894;2023-07-13T09:43:11;8.75;;;0.77;;
25946;SDS011;13745;51.470;9.894;2023-07-13T09:45:58;5.03;;;0.90;;
25946;SDS011;13745;51.470;9.894;2023-07-13T09:48:43;1.45;;;0.63;;
25946;SDS011;13745;51.470;9.894;2023-07-13T09:51:28;1.45;;;0.70;;
25946;SDS011;13745;51.470;9.894;2023-07-13T09:54:17;3.05;;;0.60;;
25946;SDS011;13745;51.470;9.894;2023-07-13T09:57:09;2.35;;;1.17;;
25946;SDS011;13745;51.470;9.894;2023-07-13T09:59:59;3.83;;;0.65;;
25946;SDS011;13745;51.470;9.894;2023-07-13T10:02:44;2.25;;;0.60;;
25946;SDS011;13745;51.470;9.894;2023-07-13T10:05:36;2.92;;;0.77;;
25946;SDS011;13745;51.470;9.894;2023-07-13T10:08:24;1.67;;;1.00;;
25946;SDS011;13745;51.470;9.894;2023-07-13T10:11:24;3.25;;;0.60;;
25946;SDS011;13745;51.470;9.894;2023-07-13T10:14:14;4.15;;;1.40;;
25946;SDS011;13745;51.470;9.894;2023-07-13T10:17:02;1.42;;;0.60;;
25946;SDS011;13745;51.470;9.894;2023-07-13T10:19:50;1.33;;;0.60;;
25946;SDS011;13745;51.470;9.894;2023-07-13T10:22:36;2.08;;;0.70;;
25946;SDS011;13745;51.470;9.894;2023-07-13T10:25:29;4.00;;;0.88;;
25946;SDS011;13745;51.470;9.894;2023-07-13T10:28:20;2.10;;;0.50;;
25946;SDS011;13745;51.470;9.894;2023-07-13T10:31:12;2.42;;;0.60;;
25946;SDS011;13745;51.470;9.894;2023-07-13T10:34:01;1.65;;;0.75;;
25946;SDS011;13745;51.470;9.894;2023-07-13T10:36:47;1.33;;;0.68;;
25946;SDS011;13745;51.470;9.894;2023-07-13T10:39:33;1.92;;;0.65;;
25946;SDS011;13745;51.470;9.894;2023-07-13T10:42:23;1.88;;;0.93;;
25946;SDS011;13745;51.470;9.894;2023-07-13T10:45:13;0.88;;;0.50;;
25946;SDS011;13745;51.470;9.894;2023-07-13T10:48:00;4.78;;;0.80;;
25946;SDS011;13745;51.470;9.894;2023-07-13T10:50:48;1.30;;;0.75;;
25946;SDS011;13745;51.470;9.894;2023-07-13T10:53:37;3.58;;;0.73;;
25946;SDS011;13745;51.470;9.894;2023-07-13T10:56:27;2.92;;;0.70;;
25946;SDS011;13745;51.470;9.894;2023-07-13T10:59:14;1.60;;;0.50;;
25946;SDS011;13745;51.470;9.894;2023-07-13T11:02:08;2.22;;;0.60;;
25946;SDS011;13745;51.470;9.894;2023-07-13T11:04:56;3.08;;;0.85;;
25946;SDS011;13745;51.470;9.894;2023-07-13T11:07:53;1.98;;;0.70;;
25946;SDS011;13745;51.470;9.894;2023-07-13T11:10:48;1.77;;;0.77;;
25946;SDS011;13745;51.470;9.894;2023-07-13T11:13:36;4.13;;;0.60;;
25946;SDS011;13745;51.470;9.894;2023-07-13T11:16:41;2.33;;;0.80;;
25946;SDS011;13745;51.470;9.894;2023-07-13T11:22:43;1.38;;;0.75;;
25946;SDS011;13745;51.470;9.894;2023-07-13T11:25:33;1.33;;;0.60;;
25946;SDS011;13745;51.470;9.894;2023-07-13T11:28:22;3.88;;;0.95;;
25946;SDS011;13745;51.470;9.894;2023-07-13T11:31:12;4.35;;;0.95;;
25946;SDS011;13745;51.470;9.894;2023-07-13T11:34:00;2.28;;;0.40;;
25946;SDS011;13745;51.470;9.894;2023-07-13T11:36:46;2.83;;;0.80;;
25946;SDS011;13745;51.470;9.894;2023-07-13T11:39:33;1.80;;;0.50;;
25946;SDS011;13745;51.470;9.894;2023-07-13T11:42:22;3.42;;;0.60;;
25946;SDS011;13745;51.470;9.894;2023-07-13T11:45:18;1.65;;;0.75;;
25946;SDS011;13745;51.470;9.894;2023-07-13T11:48:16;1.70;;;0.77;;
25946;SDS011;13745;51.470;9.894;2023-07-13T11:51:06;2.80;;;0.80;;
25946;SDS011;13745;51.470;9.894;2023-07-13T11:54:00;1.92;;;0.77;;
25946;SDS011;13745;51.470;9.894;2023-07-13T11:56:48;2.58;;;0.80;;
25946;SDS011;13745;51.470;9.894;2023-07-13T11:59:36;2.17;;;0.95;;
25946;SDS011;13745;51.470;9.894;2023-07-13T12:02:25;2.45;;;0.70;;
25946;SDS011;13745;51.470;9.894;2023-07-13T12:05:14;2.38;;;0.90;;
25946;SDS011;13745;51.470;9.894;2023-07-13T12:08:08;3.50;;;0.93;;
25946;SDS011;13745;51.470;9.894;2023-07-13T12:10:59;3.13;;;0.82;;
25946;SDS011;13745;51.470;9.894;2023-07-13T12:13:48;3.80;;;0.90;;
25946;SDS011;13745;51.470;9.894;2023-07-13T12:16:36;3.13;;;0.88;;
25946;SDS011;13745;51.470;9.894;2023-07-13T12:19:22;1.08;;;0.63;;
25946;SDS011;13745;51.470;9.894;2023-07-13T12:22:11;1.17;;;0.70;;
25946;SDS011;13745;51.470;9.894;2023-07-13T12:24:57;4.63;;;0.80;;
25946;SDS011;13745;51.470;9.894;2023-07-13T12:27:45;1.02;;;0.68;;
25946;SDS011;13745;51.470;9.894;2023-07-13T12:30:32;2.40;;;0.70;;
25946;SDS011;13745;51.470;9.894;2023-07-13T12:33:21;4.88;;;0.82;;
25946;SDS011;13745;51.470;9.894;2023-07-13T12:36:12;3.88;;;1.10;;
25946;SDS011;13745;51.470;9.894;2023-07-13T12:38:59;4.57;;;0.88;;
25946;SDS011;13745;51.470;9.894;2023-07-13T12:41:52;2.33;;;1.02;;
25946;SDS011;13745;51.470;9.894;2023-07-13T12:44:39;2.85;;;0.75;;
25946;SDS011;13745;51.470;9.894;2023-07-13T12:47:26;5.45;;;1.00;;
25946;SDS011;13745;51.470;9.894;2023-07-13T12:50:16;2.00;;;0.80;;
25946;SDS011;13745;51.470;9.894;2023-07-13T12:53:03;3.70;;;1.20;;
25946;SDS011;13745;51.470;9.894;2023-07-13T12:55:52;1.45;;;0.90;;
25946;SDS011;13745;51.470;9.894;2023-07-13T12:58:42;2.25;;;0.80;;
25946;SDS011;13745;51.470;9.894;2023-07-13T13:01:29;2.28;;;1.08;;
25946;SDS011;13745;51.470;9.894;2023-07-13T13:04:18;4.03;;;1.05;;
25946;SDS011;13745;51.470;9.894;2023-07-13T13:07:08;3.05;;;0.88;;
25946;SDS011;13745;51.470;9.894;2023-07-13T13:09:54;1.48;;;0.77;;
25946;SDS011;13745;51.470;9.894;2023-07-13T13:12:39;2.20;;;0.90;;
25946;SDS011;13745;51.470;9.894;2023-07-13T13:15:26;4.70;;;1.08;;
25946;SDS011;13745;51.470;9.894;2023-07-13T13:18:14;1.63;;;1.00;;
25946;SDS011;13745;51.470;9.894;2023-07-13T13:21:01;4.05;;;0.98;;
25946;SDS011;13745;51.470;9.894;2023-07-13T13:23:48;3.70;;;1.17;;
25946;SDS011;13745;51.470;9.894;2023-07-13T13:26:35;5.95;;;1.40;;
25946;SDS011;13745;51.470;9.894;2023-07-13T13:29:22;4.20;;;1.42;;
25946;SDS011;13745;51.470;9.894;2023-07-13T13:32:09;2.65;;;1.00;;
25946;SDS011;13745;51.470;9.894;2023-07-13T13:34:56;2.20;;;1.10;;
25946;SDS011;13745;51.470;9.894;2023-07-13T13:37:41;4.47;;;1.50;;
25946;SDS011;13745;51.470;9.894;2023-07-13T13:40:28;2.70;;;0.90;;
25946;SDS011;13745;51.470;9.894;2023-07-13T13:43:15;3.75;;;0.95;;
25946;SDS011;13745;51.470;9.894;2023-07-13T13:46:01;1.70;;;0.70;;
25946;SDS011;13745;51.470;9.894;2023-07-13T13:48:46;5.38;;;0.80;;
25946;SDS011;13745;51.470;9.894;2023-07-13T13:51:32;2.60;;;1.08;;
25946;SDS011;13745;51.470;9.894;2023-07-13T13:54:18;3.20;;;0.98;;
25946;SDS011;13745;51.470;9.894;2023-07-13T13:57:07;3.65;;;1.00;;
25946;SDS011;13745;51.470;9.894;2023-07-13T13:59:54;3.00;;;1.02;;
25946;SDS011;13745;51.470;9.894;2023-07-13T14:02:39;2.88;;;1.15;;
25946;SDS011;13745;51.470;9.894;2023-07-13T14:05:25;2.63;;;1.08;;
25946;SDS011;13745;51.470;9.894;2023-07-13T14:08:12;1.38;;;1.02;;
25946;SDS011;13745;51.470;9.894;2023-07-13T14:10:58;2.35;;;1.25;;
25946;SDS011;13745;51.470;9.894;2023-07-13T14:13:45;2.03;;;0.95;;
25946;SDS011;13745;51.470;9.894;2023-07-13T14:16:33;4.10;;;1.30;;
25946;SDS011;13745;51.470;9.894;2023-07-13T14:19:19;2.20;;;0.98;;
25946;SDS011;13745;51.470;9.894;2023-07-13T14:22:04;3.05;;;0.95;;
25946;SDS011;13745;51.470;9.894;2023-07-13T14:24:50;2.42;;;1.10;;
25946;SDS011;13745;51.470;9.894;2023-07-13T14:27:36;3.72;;;1.05;;
25946;SDS011;13745;51.470;9.894;2023-07-13T14:30:22;3.13;;;0.90;;
25946;SDS011;13745;51.470;9.894;2023-07-13T14:33:08;1.48;;;0.80;;
25946;SDS011;13745;51.470;9.894;2023-07-13T14:35:54;1.92;;;1.02;;
25946;SDS011;13745;51.470;9.894;2023-07-13T14:38:40;4.18;;;1.20;;
25946;SDS011;13745;51.470;9.894;2023-07-13T14:41:25;3.38;;;1.20;;
25946;SDS011;13745;51.470;9.894;2023-07-13T14:44:11;3.65;;;1.38;;
25946;SDS011;13745;51.470;9.894;2023-07-13T14:46:59;2.67;;;1.00;;
25946;SDS011;13745;51.470;9.894;2023-07-13T14:49:48;5.00;;;1.35;;
25946;SDS011;13745;51.470;9.894;2023-07-13T14:52:34;2.03;;;1.30;;
25946;SDS011;13745;51.470;9.894;2023-07-13T14:55:19;3.50;;;1.13;;
25946;SDS011;13745;51.470;9.894;2023-07-13T14:58:05;2.13;;;0.95;;
25946;SDS011;13745;51.470;9.894;2023-07-13T15:00:51;2.10;;;0.80;;
25946;SDS011;13745;51.470;9.894;2023-07-13T15:03:41;2.15;;;0.80;;
25946;SDS011;13745;51.470;9.894;2023-07-13T15:06:29;2.00;;;1.00;;
25946;SDS011;13745;51.470;9.894;2023-07-13T15:09:15;2.55;;;0.90;;
25946;SDS011;13745;51.470;9.894;2023-07-13T15:12:00;4.60;;;0.93;;
25946;SDS011;13745;51.470;9.894;2023-07-13T15:14:45;1.17;;;0.63;;
25946;SDS011;13745;51.470;9.894;2023-07-13T15:17:32;1.98;;;0.82;;
25946;SDS011;13745;51.470;9.894;2023-07-13T15:20:23;3.45;;;1.00;;
25946;SDS011;13745;51.470;9.894;2023-07-13T15:23:12;4.20;;;0.90;;
25946;SDS011;13745;51.470;9.894;2023-07-13T15:25:59;3.00;;;0.93;;
25946;SDS011;13745;51.470;9.894;2023-07-13T15:28:44;5.20;;;1.10;;
25946;SDS011;13745;51.470;9.894;2023-07-13T15:31:30;2.72;;;1.13;;
25946;SDS011;13745;51.470;9.894;2023-07-13T15:34:18;1.73;;;0.90;;
25946;SDS011;13745;51.470;9.894;2023-07-13T15:37:12;1.17;;;0.73;;
25946;SDS011;13745;51.470;9.894;2023-07-13T15:39:59;4.63;;;1.15;;
25946;SDS011;13745;51.470;9.894;2023-07-13T15:42:44;4.20;;;0.88;;
25946;SDS011;13745;51.470;9.894;2023-07-13T15:45:30;2.30;;;1.13;;
25946;SDS011;13745;51.470;9.894;2023-07-13T15:48:15;2.13;;;0.70;;
25946;SDS011;13745;51.470;9.894;2023-07-13T15:51:04;3.28;;;1.10;;
25946;SDS011;13745;51.470;9.894;2023-07-13T15:53:58;2.35;;;0.90;;
25946;SDS011;13745;51.470;9.894;2023-07-13T15:56:48;2.05;;;0.80;;
25946;SDS011;13745;51.470;9.894;2023-07-13T15:59:36;2.20;;;0.73;;
25946;SDS011;13745;51.470;9.894;2023-07-13T16:02:22;2.50;;;0.90;;
25946;SDS011;13745;51.470;9.894;2023-07-13T16:05:07;2.75;;;1.00;;
25946;SDS011;13745;51.470;9.894;2023-07-13T16:07:55;2.63;;;0.93;;
25946;SDS011;13745;51.470;9.894;2023-07-13T16:10:42;2.63;;;0.90;;
25946;SDS011;13745;51.470;9.894;2023-07-13T16:13:28;3.58;;;1.10;;
25946;SDS011;13745;51.470;9.894;2023-07-13T16:16:14;1.60;;;0.95;;
25946;SDS011;13745;51.470;9.894;2023-07-13T16:19:02;2.33;;;1.05;;
25946;SDS011;13745;51.470;9.894;2023-07-13T16:21:49;2.80;;;1.20;;
25946;SDS011;13745;51.470;9.894;2023-07-13T16:24:35;2.38;;;0.88;;
25946;SDS011;13745;51.470;9.894;2023-07-13T16:27:22;4.43;;;1.60;;
25946;SDS011;13745;51.470;9.894;2023-07-13T16:30:14;4.35;;;1.50;;
25946;SDS011;13745;51.470;9.894;2023-07-13T16:33:05;2.30;;;1.35;;
25946;SDS011;13745;51.470;9.894;2023-07-13T16:35:52;5.40;;;1.30;;
25946;SDS011;13745;51.470;9.894;2023-07-13T16:38:38;2.80;;;0.80;;
25946;SDS011;13745;51.470;9.894;2023-07-13T16:41:23;6.05;;;1.52;;
25946;SDS011;13745;51.470;9.894;2023-07-13T16:44:11;2.15;;;1.05;;
25946;SDS011;13745;51.470;9.894;2023-07-13T16:46:57;1.83;;;1.05;;
25946;SDS011;13745;51.470;9.894;2023-07-13T16:49:44;5.18;;;1.42;;
25946;SDS011;13745;51.470;9.894;2023-07-13T16:52:29;2.72;;;0.80;;